Time;durP1;ratioP1;P1;durP2;ratioP2;P2;SDS_P1;SDS_P2;PMS_P1;PMS_P2;Temp;Humidity;BMP_temperature;BMP_pressure;BME280_temperature;BME280_humidity;BME280_pressure;Samples;Min_cycle;Max_cycle;Signal;HPM_P1;HPM_P2
2020/12/10 00:02:05;;;;;;;7.25;5.80;;;2.40;82.70;;;;;;5034831;28;20454;-77
2020/12/10 00:04:30;;;;;;;7.88;5.63;;;2.40;82.50;;;;;;5034260;28;20526;-75
2020/12/10 00:06:56;;;;;;;8.23;6.10;;;2.40;82.40;;;;;;5016568;28;20402;-77
2020/12/10 00:09:21;;;;;;;7.32;5.13;;;2.30;82.40;;;;;;5034607;28;20386;-77
2020/12/10 00:11:47;;;;;;;6.63;4.35;;;2.30;82.60;;;;;;5034711;28;20490;-77
2020/12/10 00:14:13;;;;;;;8.82;5.60;;;2.30;82.80;;;;;;5034681;28;20159;-77
2020/12/10 00:16:38;;;;;;;8.65;6.15;;;2.30;82.80;;;;;;5034600;28;20479;-78
2020/12/10 00:19:04;;;;;;;8.68;6.57;;;2.30;82.80;;;;;;5016675;28;20021;-78
2020/12/10 00:24:09;;;;;;;10.25;7.35;;;2.30;82.90;;;;;;5436019;23;20073;-76
2020/12/10 00:26:35;;;;;;;10.00;6.53;;;2.30;83.10;;;;;;5016763;28;20030;-76
2020/12/10 00:29:04;;;;;;;13.15;7.18;;;2.30;83.20;;;;;;5079544;23;20526;-79
2020/12/10 00:34:13;;;;;;;9.63;6.43;;;2.30;83.30;;;;;;5045792;23;20060;-76
2020/12/10 00:36:38;;;;;;;12.30;7.43;;;2.30;83.40;;;;;;5016708;28;20026;-76
2020/12/10 00:39:13;;;;;;;10.38;7.47;;;2.30;83.30;;;;;;5093755;23;20135;-76
2020/12/10 00:41:39;;;;;;;10.65;7.60;;;2.30;83.20;;;;;;5016387;28;20037;-76
2020/12/10 00:44:14;;;;;;;11.20;7.55;;;2.20;83.10;;;;;;5016238;28;20032;-77
2020/12/10 00:46:40;;;;;;;11.65;7.68;;;2.20;83.20;;;;;;5034134;28;20032;-76
2020/12/10 00:49:05;;;;;;;11.45;7.05;;;2.30;83.40;;;;;;5022758;23;20037;-76
2020/12/10 00:51:44;;;;;;;11.65;7.47;;;2.20;83.40;;;;;;5016209;28;20112;-79
2020/12/10 00:54:10;;;;;;;11.63;7.32;;;2.10;83.50;;;;;;5033909;28;20087;-75
2020/12/10 00:59:19;;;;;;;10.75;7.07;;;2.10;83.90;;;;;;5048056;23;20080;-77
2020/12/10 01:04:21;;;;;;;11.85;7.68;;;2.20;84.00;;;;;;5062210;23;20057;-77
2020/12/10 01:06:47;;;;;;;12.13;7.60;;;2.20;84.00;;;;;;5043246;23;20073;-77
2020/12/10 01:09:12;;;;;;;10.60;7.57;;;2.20;84.00;;;;;;4995577;28;20061;-77
2020/12/10 01:14:19;;;;;;;9.38;6.88;;;2.20;84.00;;;;;;5064315;23;20126;-77
2020/12/10 01:16:46;;;;;;;10.52;7.53;;;2.10;84.00;;;;;;5015679;28;20025;-77
2020/12/10 01:19:12;;;;;;;10.32;7.10;;;2.20;84.00;;;;;;5033931;28;20028;-77
2020/12/10 01:21:38;;;;;;;7.80;5.53;;;2.10;84.00;;;;;;5033859;28;20046;-76
2020/12/10 01:24:04;;;;;;;8.25;5.78;;;2.10;84.00;;;;;;5044464;28;20190;-77
2020/12/10 01:26:34;;;;;;;9.88;6.28;;;2.10;84.00;;;;;;5057204;23;20117;-76
2020/12/10 01:29:01;;;;;;;8.18;5.78;;;2.10;84.10;;;;;;5027799;28;20025;-75
2020/12/10 01:31:27;;;;;;;8.77;6.50;;;2.10;84.10;;;;;;5045791;28;20048;-76
2020/12/10 01:33:52;;;;;;;11.45;7.13;;;2.10;84.10;;;;;;5026518;28;20037;-76
2020/12/10 01:36:23;;;;;;;15.73;9.00;;;2.10;84.10;;;;;;5034716;28;20021;-76
2020/12/10 01:38:49;;;;;;;17.88;8.88;;;2.10;84.10;;;;;;5033333;28;20026;-76
2020/12/10 01:41:40;;;;;;;13.02;8.07;;;2.10;84.10;;;;;;5049193;23;20061;-79
2020/12/10 01:44:11;;;;;;;12.48;7.68;;;2.10;84.10;;;;;;5032934;28;20083;-76
2020/12/10 01:46:38;;;;;;;10.20;6.93;;;2.10;84.00;;;;;;5015470;28;20026;-77
2020/12/10 01:49:05;;;;;;;11.18;7.22;;;2.20;84.00;;;;;;5015521;28;20021;-77
2020/12/10 01:51:31;;;;;;;10.88;6.93;;;2.10;84.00;;;;;;5015401;28;20030;-75
2020/12/10 01:53:58;;;;;;;10.90;7.63;;;2.10;84.00;;;;;;5015627;28;20521;-77
2020/12/10 01:56:23;;;;;;;9.73;6.28;;;2.20;84.00;;;;;;5065490;23;20446;-77
2020/12/10 01:58:49;;;;;;;9.80;6.32;;;2.20;84.10;;;;;;5019259;28;20040;-76
2020/12/10 02:01:21;;;;;;;9.05;6.38;;;2.20;84.10;;;;;;5040745;28;20509;-79
2020/12/10 02:03:52;;;;;;;10.38;6.47;;;2.20;84.10;;;;;;5038008;28;20423;-77
2020/12/10 02:06:20;;;;;;;10.00;6.93;;;2.20;83.90;;;;;;5030112;23;20533;-80
2020/12/10 02:08:57;;;;;;;11.98;7.40;;;2.20;83.90;;;;;;5012629;28;20058;-77
2020/12/10 02:13:58;;;;;;;12.63;7.57;;;2.20;83.70;;;;;;5045042;23;20064;-77
2020/12/10 02:16:37;;;;;;;16.20;9.68;;;2.20;83.80;;;;;;5028803;23;20045;-77
2020/12/10 02:19:02;;;;;;;15.27;8.95;;;2.20;83.80;;;;;;5038522;23;20025;-78
2020/12/10 02:21:28;;;;;;;16.00;9.40;;;2.20;83.90;;;;;;5015822;28;20379;-78
2020/12/10 02:23:54;;;;;;;15.07;9.20;;;2.20;84.00;;;;;;5019182;23;20038;-77
2020/12/10 02:26:24;;;;;;;16.10;9.57;;;2.10;84.00;;;;;;5015793;28;20030;-78
2020/12/10 02:28:50;;;;;;;17.92;9.80;;;2.20;84.00;;;;;;5041149;23;20045;-78
2020/12/10 02:31:23;;;;;;;14.80;9.30;;;2.20;84.00;;;;;;5318686;23;20568;-78
2020/12/10 02:39:20;;;;;;;14.48;9.30;;;2.20;83.80;;;;;;5086308;23;20049;-80
2020/12/10 02:41:47;;;;;;;12.30;8.52;;;2.30;83.90;;;;;;5033177;28;20054;-80
2020/12/10 02:44:13;;;;;;;12.75;8.63;;;2.20;83.60;;;;;;5035865;28;20474;-79
2020/12/10 02:46:41;;;;;;;11.10;7.90;;;2.20;83.50;;;;;;5018593;28;20397;-78
2020/12/10 02:49:07;;;;;;;11.38;7.80;;;2.20;83.60;;;;;;5018589;28;20025;-79
2020/12/10 02:51:33;;;;;;;10.13;6.43;;;2.20;83.60;;;;;;5018763;28;20075;-78
2020/12/10 02:53:59;;;;;;;10.18;6.45;;;2.10;83.60;;;;;;5018778;28;20025;-78
2020/12/10 02:56:24;;;;;;;9.18;6.53;;;2.10;83.60;;;;;;5018520;28;20083;-78
2020/12/10 02:58:50;;;;;;;10.38;6.93;;;2.20;83.60;;;;;;5018806;28;20029;-79
2020/12/10 03:01:16;;;;;;;9.02;6.38;;;2.20;83.60;;;;;;5018552;28;20033;-78
2020/12/10 03:03:41;;;;;;;12.07;6.80;;;2.20;83.60;;;;;;5018282;28;20527;-79
2020/12/10 03:06:16;;;;;;;8.98;6.25;;;2.20;83.50;;;;;;5018590;28;20501;-79
2020/12/10 03:08:41;;;;;;;10.10;7.00;;;2.20;83.30;;;;;;5018334;28;20029;-78
2020/12/10 03:11:07;;;;;;;7.78;6.10;;;2.20;83.20;;;;;;5018385;28;20032;-78
2020/12/10 03:13:36;;;;;;;10.32;6.78;;;2.10;83.30;;;;;;5018301;28;20029;-80
2020/12/10 03:16:01;;;;;;;9.95;6.85;;;2.20;83.40;;;;;;5018082;28;20030;-78
2020/12/10 03:18:27;;;;;;;8.57;6.10;;;2.20;83.50;;;;;;5017758;28;20593;-77
2020/12/10 03:20:53;;;;;;;8.63;6.20;;;2.20;83.40;;;;;;5018125;28;20030;-76
2020/12/10 03:23:19;;;;;;;11.65;7.57;;;2.20;83.30;;;;;;5158570;23;20571;-78
2020/12/10 03:25:44;;;;;;;9.38;6.50;;;2.20;84.00;;;;;;5035584;28;20033;-77
2020/12/10 03:28:10;;;;;;;10.02;7.35;;;2.20;83.20;;;;;;5017953;28;20117;-76
2020/12/10 03:30:36;;;;;;;26.25;11.80;;;2.20;83.20;;;;;;5017663;28;20401;-76
2020/12/10 03:33:02;;;;;;;20.35;10.20;;;2.20;83.10;;;;;;5034450;28;20028;-76
2020/12/10 03:35:27;;;;;;;14.00;8.43;;;2.20;82.90;;;;;;5033968;28;20041;-78
2020/12/10 03:37:53;;;;;;;11.82;7.22;;;2.10;82.90;;;;;;5018052;28;20425;-76
2020/12/10 03:40:18;;;;;;;9.73;5.47;;;2.10;82.90;;;;;;5017678;28;20029;-77
2020/12/10 03:42:44;;;;;;;9.98;7.10;;;2.10;83.00;;;;;;5017659;28;20136;-77
2020/12/10 03:45:10;;;;;;;11.45;7.32;;;2.10;83.00;;;;;;5017706;28;20022;-76
2020/12/10 03:47:35;;;;;;;10.88;7.20;;;2.10;82.90;;;;;;5017382;28;20029;-77
2020/12/10 03:50:01;;;;;;;12.40;7.88;;;2.00;82.60;;;;;;5017708;28;20048;-77
2020/12/10 03:52:26;;;;;;;10.30;7.68;;;2.00;82.60;;;;;;5017577;28;20394;-78
2020/12/10 03:54:52;;;;;;;11.70;7.65;;;1.90;82.70;;;;;;5035369;28;20609;-77
2020/12/10 03:57:18;;;;;;;10.40;7.15;;;1.90;82.80;;;;;;5035219;28;20076;-77
2020/12/10 03:59:43;;;;;;;12.27;8.50;;;2.00;82.90;;;;;;5035058;28;20033;-78
2020/12/10 04:02:09;;;;;;;10.68;7.45;;;2.00;83.10;;;;;;5035193;28;20102;-77
2020/12/10 04:07:13;;;;;;;10.75;7.82;;;2.00;83.20;;;;;;5074757;23;20049;-77
2020/12/10 04:09:39;;;;;;;11.05;8.02;;;2.00;83.20;;;;;;5017265;28;20026;-77
2020/12/10 04:12:20;;;;;;;10.70;7.50;;;2.00;83.00;;;;;;5017391;28;20034;-77
2020/12/10 04:14:45;;;;;;;13.70;8.18;;;2.00;82.90;;;;;;5017364;28;20026;-77
2020/12/10 04:17:11;;;;;;;15.38;9.48;;;2.00;82.70;;;;;;5034814;28;20155;-77
2020/12/10 04:19:36;;;;;;;12.38;8.77;;;2.00;82.60;;;;;;5034705;28;20608;-77
2020/12/10 04:22:02;;;;;;;11.70;8.00;;;2.00;82.50;;;;;;5034677;28;20033;-77
2020/12/10 04:24:27;;;;;;;12.32;8.07;;;2.00;83.40;;;;;;5034345;28;20095;-77
2020/12/10 04:26:54;;;;;;;10.60;7.65;;;2.00;82.50;;;;;;5034646;28;20026;-77
2020/12/10 04:29:19;;;;;;;10.52;7.68;;;1.90;82.60;;;;;;5034374;28;20486;-77
2020/12/10 04:31:45;;;;;;;12.45;8.32;;;1.90;82.70;;;;;;5034481;28;20029;-77
2020/12/10 04:34:11;;;;;;;11.73;7.30;;;2.00;82.70;;;;;;5034436;28;20479;-77
2020/12/10 04:36:36;;;;;;;13.65;8.52;;;2.00;82.70;;;;;;5034234;28;20021;-77
2020/12/10 04:39:03;;;;;;;12.10;8.07;;;2.00;82.70;;;;;;5034468;28;20029;-78
2020/12/10 04:41:31;;;;;;;11.10;7.18;;;2.00;82.70;;;;;;5034378;28;20060;-77
2020/12/10 04:43:57;;;;;;;12.68;8.10;;;2.00;82.80;;;;;;5016645;28;20128;-78
2020/12/10 04:46:25;;;;;;;10.98;7.57;;;2.00;82.90;;;;;;5033980;28;20056;-77
2020/12/10 04:48:52;;;;;;;13.68;8.65;;;2.00;82.90;;;;;;5034056;28;20022;-77
2020/12/10 04:51:21;;;;;;;15.52;8.80;;;2.00;83.00;;;;;;5015861;28;20082;-77
2020/12/10 04:53:47;;;;;;;13.38;9.40;;;2.00;83.00;;;;;;5034225;28;20104;-77
2020/12/10 04:56:15;;;;;;;14.00;9.35;;;2.00;83.00;;;;;;5041494;28;20076;-76
2020/12/10 04:58:41;;;;;;;12.43;8.45;;;2.00;83.10;;;;;;5049306;28;20037;-76
2020/12/10 05:01:06;;;;;;;13.82;8.77;;;2.00;83.10;;;;;;5036777;28;20124;-77
2020/12/10 05:03:32;;;;;;;12.95;8.75;;;2.00;83.10;;;;;;5033929;28;20533;-76
2020/12/10 05:06:12;;;;;;;13.52;9.07;;;2.00;83.00;;;;;;5033563;28;20386;-78
2020/12/10 05:08:37;;;;;;;11.25;7.47;;;2.10;83.00;;;;;;5033803;28;20025;-78
2020/12/10 05:11:04;;;;;;;10.32;7.45;;;2.00;82.90;;;;;;5033474;28;20470;-78
2020/12/10 05:13:29;;;;;;;11.70;7.47;;;2.10;83.00;;;;;;5016146;28;20025;-77
2020/12/10 05:15:55;;;;;;;10.40;7.15;;;2.10;83.00;;;;;;5033510;28;20036;-79
2020/12/10 05:18:21;;;;;;;11.20;7.70;;;2.10;82.90;;;;;;5015845;28;20032;-78
2020/12/10 05:20:51;;;;;;;9.05;6.47;;;2.00;82.70;;;;;;5033572;28;20029;-76
2020/12/10 05:23:31;;;;;;;10.13;7.53;;;2.10;82.80;;;;;;5033487;28;20466;-77
2020/12/10 05:25:57;;;;;;;13.90;8.63;;;2.00;82.80;;;;;;5033274;28;20017;-79
2020/12/10 05:31:17;;;;;;;14.35;8.90;;;2.00;82.50;;;;;;5039748;23;20124;-77
2020/12/10 05:33:53;;;;;;;14.10;8.55;;;1.90;82.20;;;;;;5015652;28;20021;-78
2020/12/10 05:36:19;;;;;;;13.48;8.25;;;1.90;82.00;;;;;;5015828;28;20032;-76
2020/12/10 05:39:04;;;;;;;15.80;8.80;;;1.90;81.90;;;;;;5015497;28;20030;-75
2020/12/10 05:41:32;;;;;;;12.63;8.73;;;1.90;82.10;;;;;;5015354;28;20035;-76
2020/12/10 05:44:25;;;;;;;11.15;7.85;;;1.90;82.10;;;;;;5015440;28;20124;-78
2020/12/10 05:46:53;;;;;;;11.30;7.53;;;1.90;82.00;;;;;;5015367;28;20022;-77
2020/12/10 05:49:19;;;;;;;10.75;6.93;;;1.90;81.70;;;;;;5015288;28;20124;-76
2020/12/10 05:51:49;;;;;;;13.43;7.95;;;1.90;81.70;;;;;;5015241;28;20117;-75
2020/12/10 05:54:18;;;;;;;12.73;8.18;;;1.90;81.60;;;;;;5015480;28;20021;-76
2020/12/10 05:56:57;;;;;;;14.88;8.60;;;2.00;81.70;;;;;;5015317;28;20036;-76
2020/12/10 05:59:24;;;;;;;19.25;10.63;;;2.00;81.80;;;;;;5015359;28;20112;-77
2020/12/10 06:01:50;;;;;;;19.02;10.10;;;2.00;82.00;;;;;;5015479;28;20033;-76
2020/12/10 06:04:16;;;;;;;14.13;8.65;;;2.00;82.10;;;;;;5017661;28;20493;-75
2020/12/10 06:06:41;;;;;;;15.40;9.38;;;2.00;82.10;;;;;;5018981;28;20108;-74
2020/12/10 06:09:08;;;;;;;12.80;7.35;;;2.00;82.10;;;;;;5019366;28;20105;-74
2020/12/10 06:11:37;;;;;;;8.68;6.18;;;2.00;82.00;;;;;;5019038;28;20017;-76
2020/12/10 06:14:05;;;;;;;10.00;6.50;;;2.00;81.90;;;;;;5036669;28;20478;-75
2020/12/10 06:16:32;;;;;;;10.95;7.05;;;2.00;81.70;;;;;;5019028;28;20416;-76
2020/12/10 06:19:03;;;;;;;9.13;6.03;;;2.00;81.50;;;;;;5019376;28;20021;-77
2020/12/10 06:21:39;;;;;;;8.75;5.88;;;2.00;81.40;;;;;;5036983;28;20025;-76
2020/12/10 06:24:26;;;;;;;7.22;4.70;;;2.00;81.20;;;;;;5018986;28;20032;-77
2020/12/10 06:26:53;;;;;;;9.13;5.90;;;2.00;80.90;;;;;;5018957;28;20120;-77
2020/12/10 06:29:24;;;;;;;8.85;5.93;;;2.00;80.80;;;;;;5018443;28;20550;-77
2020/12/10 06:32:08;;;;;;;8.07;5.30;;;2.00;80.70;;;;;;5018441;28;20052;-76
2020/12/10 06:34:55;;;;;;;10.25;6.32;;;2.00;80.70;;;;;;5018390;28;20474;-76
2020/12/10 06:37:30;;;;;;;8.25;5.50;;;2.00;80.80;;;;;;5017799;28;20028;-76
2020/12/10 06:40:01;;;;;;;12.52;7.50;;;2.00;80.90;;;;;;5017983;28;20113;-75
2020/12/10 06:42:44;;;;;;;11.85;7.57;;;2.00;81.30;;;;;;5018224;28;20041;-76
2020/12/10 06:45:31;;;;;;;11.73;7.45;;;2.00;80.20;;;;;;5018845;28;20056;-75
2020/12/10 06:47:57;;;;;;;13.20;7.63;;;2.00;79.90;;;;;;5018749;28;20129;-76
2020/12/10 06:50:25;;;;;;;14.30;7.25;;;2.10;80.80;;;;;;5018592;28;20085;-75
2020/12/10 06:53:21;;;;;;;9.85;6.90;;;2.00;79.70;;;;;;5018569;28;20057;-75
2020/12/10 06:55:56;;;;;;;7.95;5.65;;;2.00;79.60;;;;;;5018463;28;20055;-77
2020/12/10 06:58:45;;;;;;;7.32;5.03;;;2.00;79.60;;;;;;5018382;28;20026;-77
2020/12/10 07:01:38;;;;;;;8.48;4.95;;;2.00;79.50;;;;;;5023473;28;20513;-77
2020/12/10 07:07:22;;;;;;;6.47;4.55;;;2.00;78.80;;;;;;5036173;28;20029;-76
2020/12/10 07:10:02;;;;;;;6.75;5.18;;;2.00;78.50;;;;;;5036023;28;20061;-76
2020/12/10 07:12:32;;;;;;;6.78;4.00;;;2.00;78.50;;;;;;5018044;28;20025;-77
2020/12/10 07:15:17;;;;;;;5.60;4.20;;;2.00;78.60;;;;;;5017241;28;20041;-77
2020/12/10 07:17:50;;;;;;;6.35;4.50;;;2.00;78.30;;;;;;5017889;28;20060;-77
2020/12/10 07:20:18;;;;;;;5.75;4.47;;;2.00;78.00;;;;;;5001836;28;20029;-76
2020/12/10 07:22:44;;;;;;;7.00;4.75;;;2.00;77.70;;;;;;5017700;28;20030;-75
2020/12/10 07:25:11;;;;;;;5.82;4.35;;;2.00;77.70;;;;;;5017786;28;20017;-76
2020/12/10 07:27:41;;;;;;;5.38;4.25;;;2.00;77.70;;;;;;5017864;28;20033;-76
2020/12/10 07:30:16;;;;;;;5.05;4.00;;;2.00;77.80;;;;;;5014476;28;20123;-76
2020/12/10 07:32:43;;;;;;;11.30;6.97;;;2.00;78.00;;;;;;5003838;28;20018;-76
2020/12/10 07:35:12;;;;;;;10.23;6.05;;;2.00;76.40;;;;;;4997898;28;20038;-76
2020/12/10 07:37:38;;;;;;;8.57;5.43;;;2.00;77.20;;;;;;4992423;28;20508;-76
2020/12/10 07:40:14;;;;;;;8.77;5.28;;;2.00;76.20;;;;;;4997908;28;20072;-75
2020/12/10 07:42:41;;;;;;;;;;;2.00;76.40;;;;;;5009237;28;20157;-76
2020/12/10 07:45:15;;;;;;;7.22;4.57;;;2.00;76.70;;;;;;5014032;28;20485;-76
2020/12/10 07:47:42;;;;;;;7.73;4.97;;;2.00;76.70;;;;;;5008840;28;20026;-73
2020/12/10 07:50:21;;;;;;;9.00;6.13;;;2.10;76.70;;;;;;5013883;28;20312;-74
2020/12/10 07:52:52;;;;;;;10.52;6.28;;;2.10;76.80;;;;;;5009805;28;20417;-76
2020/12/10 07:55:28;;;;;;;6.28;4.53;;;2.00;76.60;;;;;;5013638;28;20030;-74
2020/12/10 07:58:12;;;;;;;5.15;3.47;;;2.00;76.10;;;;;;5013744;28;20025;-73
2020/12/10 08:00:40;;;;;;;5.05;3.55;;;2.00;75.40;;;;;;5008219;28;20029;-75
2020/12/10 08:03:19;;;;;;;4.40;2.97;;;2.00;75.20;;;;;;5013719;28;20056;-75
2020/12/10 08:05:58;;;;;;;4.53;3.15;;;2.10;75.70;;;;;;5009130;28;20018;-75
2020/12/10 08:08:46;;;;;;;5.18;3.45;;;2.30;75.80;;;;;;5013308;28;20088;-75
2020/12/10 08:11:19;;;;;;;7.95;4.63;;;2.30;75.70;;;;;;5013493;28;20096;-75
2020/12/10 08:13:58;;;;;;;4.53;3.35;;;2.40;75.50;;;;;;4993356;28;20125;-75
2020/12/10 08:16:35;;;;;;;5.20;3.35;;;2.40;74.90;;;;;;5014732;28;20041;-76
2020/12/10 08:19:13;;;;;;;6.20;3.47;;;2.50;73.70;;;;;;5011444;28;20483;-74
2020/12/10 08:21:40;;;;;;;4.35;2.80;;;2.80;75.90;;;;;;5008082;28;20038;-74
2020/12/10 08:24:06;;;;;;;5.65;3.45;;;2.90;74.60;;;;;;4997139;28;20129;-74
2020/12/10 08:26:33;;;;;;;8.13;3.28;;;3.00;74.90;;;;;;5006259;28;20054;-76
2020/12/10 08:29:00;;;;;;;4.70;3.33;;;3.10;74.10;;;;;;5014136;28;20108;-75
2020/12/10 08:31:29;;;;;;;7.13;4.13;;;3.20;72.20;;;;;;5006253;28;20121;-79
2020/12/10 08:33:56;;;;;;;5.45;3.53;;;3.10;71.60;;;;;;5014001;28;20022;-76
2020/12/10 08:36:26;;;;;;;6.05;3.55;;;3.00;71.50;;;;;;5005888;28;20060;-75
2020/12/10 08:38:53;;;;;;;5.53;3.88;;;2.90;71.60;;;;;;5013605;28;20018;-76
2020/12/10 08:41:33;;;;;;;5.03;3.80;;;2.80;70.70;;;;;;5013692;28;20034;-76
2020/12/10 08:44:10;;;;;;;5.38;3.70;;;2.60;69.90;;;;;;4997246;28;20034;-76
2020/12/10 08:46:40;;;;;;;6.15;3.90;;;2.30;71.20;;;;;;4991340;28;20030;-75
2020/12/10 08:49:19;;;;;;;3.88;2.95;;;2.20;71.00;;;;;;5013723;28;20057;-75
2020/12/10 08:51:47;;;;;;;5.10;3.53;;;2.10;71.10;;;;;;5013819;28;20046;-74
2020/12/10 08:54:13;;;;;;;4.55;2.97;;;2.00;71.40;;;;;;5015822;28;20041;-75
2020/12/10 08:56:39;;;;;;;5.07;3.08;;;1.90;72.10;;;;;;5007201;28;20445;-76
2020/12/10 08:59:07;;;;;;;4.45;2.88;;;2.00;71.70;;;;;;5012762;28;20029;-75
2020/12/10 09:01:34;;;;;;;3.83;3.03;;;2.10;72.50;;;;;;5006518;28;20124;-76
2020/12/10 09:04:00;;;;;;;3.67;2.85;;;2.10;72.80;;;;;;5012543;28;20029;-75
2020/12/10 09:06:36;;;;;;;4.30;3.25;;;2.10;72.70;;;;;;5005515;28;20029;-75
2020/12/10 09:09:06;;;;;;;5.88;4.03;;;2.20;72.70;;;;;;5012961;28;20033;-75
2020/12/10 09:11:33;;;;;;;5.47;3.40;;;2.10;72.40;;;;;;5006089;28;20128;-76
2020/12/10 09:13:59;;;;;;;5.03;2.95;;;2.00;72.20;;;;;;5012723;28;20121;-75
2020/12/10 09:16:26;;;;;;;4.82;3.17;;;2.00;71.50;;;;;;4989190;28;20022;-76
2020/12/10 09:18:52;;;;;;;5.03;3.20;;;1.90;72.00;;;;;;5012168;28;20515;-76
2020/12/10 09:21:18;;;;;;;4.55;3.28;;;1.80;72.30;;;;;;5012507;28;20025;-77
2020/12/10 09:23:45;;;;;;;5.10;3.15;;;1.80;73.30;;;;;;5012296;28;20427;-76
2020/12/10 09:26:16;;;;;;;4.35;3.20;;;1.70;73.40;;;;;;4995769;28;20030;-77
2020/12/10 09:28:42;;;;;;;4.53;2.80;;;1.60;73.90;;;;;;5006898;28;20026;-75
2020/12/10 09:31:08;;;;;;;6.13;3.47;;;1.50;74.20;;;;;;5032116;28;20060;-76
2020/12/10 09:33:34;;;;;;;3.75;2.58;;;1.40;74.50;;;;;;5015341;28;20025;-76
2020/12/10 09:36:01;;;;;;;3.40;2.53;;;1.30;75.20;;;;;;5015396;28;20049;-74
2020/12/10 09:38:27;;;;;;;4.75;2.88;;;1.40;75.10;;;;;;4998701;28;20041;-75
2020/12/10 09:40:53;;;;;;;3.67;2.72;;;1.40;75.00;;;;;;5015350;28;20095;-77
2020/12/10 09:43:18;;;;;;;4.45;3.08;;;1.50;74.90;;;;;;5014955;28;20501;-76
2020/12/10 09:45:48;;;;;;;4.28;2.85;;;1.50;74.90;;;;;;5015620;28;20025;-76
2020/12/10 09:48:17;;;;;;;5.55;2.70;;;1.70;74.20;;;;;;5015020;28;20371;-74
2020/12/10 09:50:42;;;;;;;3.90;2.83;;;1.70;74.00;;;;;;4998895;28;20026;-76
2020/12/10 09:58:02;;;;;;;3.42;2.47;;;1.80;74.10;;;;;;5032264;28;20033;-76
2020/12/10 10:00:31;;;;;;;5.03;2.80;;;1.90;74.10;;;;;;4998315;28;20038;-76
2020/12/10 10:02:56;;;;;;;7.15;4.25;;;2.00;73.70;;;;;;5032466;28;20043;-75
2020/12/10 10:05:23;;;;;;;4.80;4.00;;;2.00;74.30;;;;;;5031730;28;20110;-75
2020/12/10 10:07:49;;;;;;;7.50;3.67;;;2.10;73.80;;;;;;5032450;28;20077;-76
2020/12/10 10:10:15;;;;;;;3.42;2.70;;;2.20;73.80;;;;;;5014482;28;20101;-76
2020/12/10 10:12:40;;;;;;;4.70;3.75;;;2.20;72.10;;;;;;5014570;28;20612;-78
2020/12/10 10:15:08;;;;;;;4.88;3.30;;;2.30;71.80;;;;;;5014647;28;20029;-78
2020/12/10 10:17:35;;;;;;;4.95;3.78;;;2.30;71.60;;;;;;4998024;28;20076;-76
2020/12/10 10:20:00;;;;;;;6.03;3.85;;;2.30;71.60;;;;;;5014835;28;20026;-75
2020/12/10 10:22:26;;;;;;;6.40;3.67;;;2.20;71.00;;;;;;5014597;28;20052;-75
2020/12/10 10:24:52;;;;;;;6.32;4.35;;;2.10;71.60;;;;;;4998666;28;20128;-77
2020/12/10 10:27:18;;;;;;;9.23;4.55;;;2.10;71.90;;;;;;5014439;28;20120;-75
2020/12/10 10:29:43;;;;;;;6.47;4.55;;;2.20;72.70;;;;;;4997715;28;20052;-75
2020/12/10 10:32:09;;;;;;;4.85;3.35;;;2.30;73.00;;;;;;5014422;28;20028;-75
2020/12/10 10:34:37;;;;;;;6.03;3.85;;;2.30;72.20;;;;;;5014373;28;20025;-74
2020/12/10 10:37:04;;;;;;;5.70;3.60;;;2.30;71.80;;;;;;5014326;28;20086;-75
2020/12/10 10:39:29;;;;;;;4.60;3.40;;;2.30;71.50;;;;;;5014373;28;20474;-75
2020/12/10 10:41:55;;;;;;;4.70;3.50;;;2.30;71.40;;;;;;5014800;28;20040;-75
2020/12/10 10:44:21;;;;;;;5.72;4.05;;;2.20;71.00;;;;;;5014209;28;20250;-75
2020/12/10 10:46:48;;;;;;;6.85;4.47;;;2.20;71.20;;;;;;5014116;28;20033;-75
2020/12/10 10:49:17;;;;;;;4.88;3.40;;;2.30;71.20;;;;;;5014682;28;20087;-74
2020/12/10 10:51:46;;;;;;;5.20;3.38;;;2.30;70.90;;;;;;5001679;28;20041;-75
2020/12/10 10:54:12;;;;;;;6.07;4.20;;;2.40;70.60;;;;;;5017533;28;20022;-75
2020/12/10 10:56:37;;;;;;;6.95;4.72;;;2.50;71.00;;;;;;5001341;28;20580;-78
2020/12/10 10:59:03;;;;;;;5.97;3.83;;;2.60;72.00;;;;;;5017734;28;20504;-75
2020/12/10 11:01:29;;;;;;;5.80;3.88;;;2.70;71.70;;;;;;5017618;28;20473;-75
2020/12/10 11:03:56;;;;;;;4.85;3.78;;;2.90;71.30;;;;;;5035309;28;20079;-75
2020/12/10 11:06:21;;;;;;;7.18;4.88;;;3.00;70.80;;;;;;5017228;28;20105;-74
2020/12/10 11:08:48;;;;;;;7.55;5.45;;;3.00;70.50;;;;;;5034954;28;20018;-75
2020/12/10 11:11:21;;;;;;;6.82;4.63;;;3.10;70.60;;;;;;5017419;28;20037;-74
2020/12/10 11:13:47;;;;;;;7.88;5.18;;;3.20;70.70;;;;;;5017430;28;20018;-75
2020/12/10 11:16:14;;;;;;;6.50;4.85;;;3.20;70.80;;;;;;5017250;28;20502;-75
2020/12/10 11:18:44;;;;;;;6.75;4.90;;;3.20;70.90;;;;;;5017904;28;20072;-76
2020/12/10 11:21:11;;;;;;;7.68;5.50;;;3.20;70.70;;;;;;5018364;28;20030;-75
2020/12/10 11:23:38;;;;;;;8.23;5.65;;;3.20;70.60;;;;;;5017097;28;20061;-76
2020/12/10 11:26:04;;;;;;;7.30;5.25;;;3.30;70.60;;;;;;5017625;28;20074;-79
2020/12/10 11:28:31;;;;;;;8.52;6.13;;;3.20;70.40;;;;;;5017279;28;20029;-79
2020/12/10 11:30:57;;;;;;;8.18;5.43;;;3.20;70.30;;;;;;5017046;28;20049;-76
2020/12/10 11:33:23;;;;;;;6.40;5.05;;;3.20;69.90;;;;;;5001092;28;20033;-76
2020/12/10 11:35:50;;;;;;;7.18;5.25;;;3.20;69.50;;;;;;5017220;28;20168;-75
2020/12/10 11:38:16;;;;;;;7.25;5.30;;;3.10;69.60;;;;;;5017407;28;20029;-75
2020/12/10 11:40:42;;;;;;;8.10;5.90;;;3.20;69.80;;;;;;5017190;28;20030;-75
2020/12/10 11:43:07;;;;;;;8.95;6.68;;;3.20;69.80;;;;;;5017007;28;20167;-76
2020/12/10 11:45:33;;;;;;;7.85;5.88;;;3.20;70.70;;;;;;5016656;28;20108;-75
2020/12/10 11:48:03;;;;;;;9.82;6.47;;;3.20;70.10;;;;;;5016423;28;20132;-75
2020/12/10 11:50:35;;;;;;;8.70;6.03;;;3.20;70.10;;;;;;5034072;28;20079;-76
2020/12/10 11:53:01;;;;;;;10.48;7.53;;;3.30;70.20;;;;;;5034367;28;20382;-75
2020/12/10 11:55:28;;;;;;;24.63;7.40;;;3.30;70.60;;;;;;5016458;28;20040;-75
2020/12/10 11:57:55;;;;;;;10.20;7.25;;;3.40;70.90;;;;;;5016717;28;20549;-76
2020/12/10 12:00:21;;;;;;;11.45;7.50;;;3.40;71.10;;;;;;5016024;28;20029;-77
2020/12/10 12:02:48;;;;;;;10.60;6.88;;;3.40;71.00;;;;;;5013057;28;20088;-76
2020/12/10 12:05:16;;;;;;;10.23;7.57;;;3.40;70.70;;;;;;4997078;28;20026;-75
2020/12/10 12:07:44;;;;;;;10.48;7.28;;;3.30;70.80;;;;;;4980955;28;20030;-75
2020/12/10 12:10:10;;;;;;;12.43;8.23;;;3.30;70.90;;;;;;5014375;28;20026;-74
2020/12/10 12:12:36;;;;;;;10.85;7.47;;;3.30;70.80;;;;;;4996539;28;20030;-74
2020/12/10 12:15:08;;;;;;;12.40;8.80;;;3.30;70.80;;;;;;4996747;28;20120;-74
2020/12/10 12:17:34;;;;;;;10.13;7.40;;;3.30;70.70;;;;;;4996431;28;20121;-73
2020/12/10 12:20:04;;;;;;;14.35;9.25;;;3.30;70.60;;;;;;4996710;28;20113;-75
2020/12/10 12:22:33;;;;;;;12.50;8.82;;;3.30;70.40;;;;;;4995991;28;20069;-76
2020/12/10 12:24:59;;;;;;;14.73;9.95;;;3.20;70.50;;;;;;4996756;28;20022;-76
2020/12/10 12:27:26;;;;;;;14.18;9.60;;;3.20;70.50;;;;;;4996245;28;20026;-76
2020/12/10 12:29:51;;;;;;;11.18;7.90;;;3.10;71.20;;;;;;4996053;28;20180;-76
2020/12/10 12:32:17;;;;;;;12.00;8.25;;;3.00;70.50;;;;;;4996474;28;20162;-76
2020/12/10 12:34:42;;;;;;;13.55;9.48;;;3.00;69.80;;;;;;4996216;28;20080;-76
2020/12/10 12:37:12;;;;;;;13.65;10.25;;;3.00;69.60;;;;;;4996339;28;20577;-77
2020/12/10 12:39:39;;;;;;;13.75;9.05;;;3.00;69.60;;;;;;4995996;28;20469;-75
2020/12/10 12:42:06;;;;;;;12.40;8.07;;;2.80;69.50;;;;;;4996220;28;20490;-76
2020/12/10 12:44:32;;;;;;;9.90;7.40;;;2.50;70.20;;;;;;4996551;28;20036;-74
2020/12/10 12:46:58;;;;;;;9.63;6.75;;;2.30;71.00;;;;;;4996591;28;20028;-74
2020/12/10 12:49:23;;;;;;;11.82;8.43;;;2.30;71.40;;;;;;4996081;28;20120;-73
2020/12/10 12:52:08;;;;;;;11.10;7.68;;;2.30;72.00;;;;;;4979587;28;20037;-75
2020/12/10 12:54:34;;;;;;;9.80;7.25;;;2.30;72.50;;;;;;4980087;28;20391;-75
2020/12/10 12:57:00;;;;;;;11.48;8.25;;;2.40;72.50;;;;;;4995982;28;20034;-74
2020/12/10 12:59:29;;;;;;;9.40;6.90;;;2.30;73.20;;;;;;4996120;28;20037;-78
2020/12/10 13:01:55;;;;;;;10.05;6.63;;;2.10;73.40;;;;;;4979744;28;20038;-77
2020/12/10 13:04:23;;;;;;;9.40;7.20;;;2.10;73.70;;;;;;4995976;28;20083;-80
2020/12/10 13:06:51;;;;;;;9.20;6.63;;;2.10;74.50;;;;;;4996147;28;20025;-75
2020/12/10 13:09:18;;;;;;;9.77;6.60;;;2.10;74.90;;;;;;4995746;28;20030;-75
2020/12/10 13:11:44;;;;;;;10.18;7.22;;;2.20;74.70;;;;;;4995470;28;20033;-76
2020/12/10 13:14:11;;;;;;;9.63;7.43;;;2.20;74.50;;;;;;4995425;28;20022;-75
2020/12/10 13:16:45;;;;;;;10.35;7.63;;;2.30;74.30;;;;;;4995636;28;20094;-74
2020/12/10 13:19:13;;;;;;;9.30;6.93;;;2.20;74.10;;;;;;4995613;28;20026;-76
2020/12/10 13:21:39;;;;;;;13.20;8.30;;;2.20;73.80;;;;;;4995427;28;20040;-75
2020/12/10 13:24:06;;;;;;;12.40;8.23;;;2.20;73.90;;;;;;4995330;28;20487;-75
2020/12/10 13:26:33;;;;;;;11.00;8.32;;;2.20;74.30;;;;;;5012993;28;20344;-78
2020/12/10 13:28:59;;;;;;;12.07;8.60;;;2.20;74.70;;;;;;4995266;28;20140;-75
2020/12/10 13:31:25;;;;;;;10.70;7.28;;;2.10;74.60;;;;;;5266589;23;20054;-77
2020/12/10 13:33:51;;;;;;;10.48;7.90;;;2.10;74.20;;;;;;5026639;23;20049;-78
2020/12/10 13:36:17;;;;;;;12.07;8.23;;;2.10;74.50;;;;;;5015883;28;20029;-78